WEATHER DATA

TODAY
Time Temp. Dewp. Hum. Wind dir Wind speed Wind gust Bar.
00:09 5.3 2.8 84 225 0.3 1.1 1028.6
00:19 5.3 2.8 84 248 0.8 1.4 1028.6
00:28 5.2 2.7 84 230 0.6 1.1 1028.8
00:39 5.2 2.7 84 244 0.6 1.7 1028.8
00:49 5.2 2.7 84 232 0.6 1.1 1028.9
00:59 5.1 2.6 84 270 0.6 1.7 1028.8
01:09 5.1 2.6 84 232 0.8 1.9 1028.8
01:19 5.1 2.6 84 258 0.8 1.7 1028.6
01:29 5.1 2.6 84 255 0.8 1.7 1028.6
01:39 5.1 2.6 84 225 0.8 2.2 1028.6
01:50 5.1 2.6 84 216 0.6 1.4 1028.5
01:59 5.1 2.6 84 270 0.8 1.7 1028.5
02:09 5 2.5 84 253 0.8 1.7 1028.4
02:19 5 2.5 84 270 0.6 1.9 1028.4
02:30 4.9 2.4 84 270 0.6 1.4 1028.4
02:39 4.9 2.4 84 250 0.8 1.9 1028.3
02:49 4.9 2.4 84 253 0.6 1.4 1028.3
03:00 4.9 2.4 84 254 0.6 1.7 1028.3
03:10 4.8 2.3 84 270 0.6 1.4 1028.3
03:19 4.8 2.3 84 259 0.8 1.4 1028.3
03:30 4.7 2.2 84 225 0.6 1.1 1028.3
03:40 4.6 2.1 84 270 0.6 1.7 1028.3
03:50 4.6 2.1 84 270 0.6 1.1 1028.2
03:59 4.7 2.2 84 244 0.6 1.4 1028.1
04:10 4.7 2.2 84 255 0.6 1.7 1028
04:20 4.6 2.1 84 270 0.6 1.9 1028
04:30 4.6 2.1 84 245 0.6 1.7 1027.9
04:40 4.6 2.3 85 248 0.6 1.7 1027.9
04:50 4.6 2.3 85 252 0.6 1.4 1027.8
05:00 4.6 2.3 85 244 0.6 1.7 1027.8
05:10 4.6 2.3 85 270 0.3 1.1 1027.8
05:21 4.6 2.3 85 240 0.6 1.7 1027.9
05:30 4.5 2.2 85 165 0.3 1.4 1028
05:40 4.4 2.1 85 270 0.3 1.1 1028
05:51 4.3 2.2 86 270 0.6 1.7 1028.1
06:01 4.3 2.2 86 270 0.6 1.4 1028.1
06:10 4.2 2.1 86 270 0.3 1.1 1028.2
06:20 4.2 2.1 86 245 0.6 1.1 1028.1
06:31 4.2 2.1 86 270 0.3 0.8 1028.1
06:41 4.1 2 86 270 0.3 0.6 1028
06:50 4.1 2 86 270 0.3 0.6 1028
07:01 4.1 2 86 302 0.3 1.1 1028.1
07:11 4.1 2.1 87 301 0.6 1.1 1028.2
07:21 4 2 87 270 0.3 1.4 1028.2
07:30 4 2 87 245 0.8 1.4 1028.3
07:41 4 2 87 233 0.6 1.4 1028.3
07:51 4 2 87 237 0.6 1.1 1028.4
08:01 4 2.2 88 244 0.6 1.1 1028.4
08:12 4.1 2.3 88 247 0.6 1.1 1028.4
08:21 4.1 2.3 88 237 0.6 1.4 1028.5
08:31 4.1 2.3 88 270 0.6 1.1 1028.5
08:41 4.2 2.4 88 270 0.3 1.1 1028.6
08:52 4.2 2.4 88 270 0.6 1.4 1028.6
09:01 4.2 2.4 88 240 0.6 1.1 1028.6
09:11 4.2 2.4 88 235 0.3 0.6 1028.5
09:22 4.2 2.4 88 270 0.3 0.6 1028.6
09:32 4.2 2.4 88 236 0.6 1.1 1028.6
09:41 4.3 2.5 88 249 1.1 1.7 1028.6
09:51 4.5 2.8 89 241 0.6 1.1 1028.8
10:02 4.6 2.9 89 270 0.3 0.8 1028.9
10:12 4.8 3.1 89 234 0.6 1.4 1029
10:22 5 3.3 89 233 0.6 1.1 1029.1
10:32 5.3 3.6 89 239 0.8 1.7 1029.2
10:42 5.6 3.9 89 229 0.6 1.4 1029.2
10:52 6 4.2 88 270 0.6 1.1 1029.2
11:02 6.4 4.6 88 200 0.6 1.7 1029.2
11:12 6.6 4.6 87 270 0.6 1.7 1029.2
11:22 6.8 4.6 86 249 0.6 1.4 1029.2
11:32 6.8 4.6 86 270 0.6 1.4 1029.3
11:43 6.8 4.5 85 270 0.8 1.7 1029.3
11:52 6.7 4.4 85 270 0.6 1.9 1029.4
12:02 6.7 4.4 85 248 0.6 1.4 1029.5
12:12 6.6 4.3 85 237 0.6 1.4 1029.5
12:23 6.6 4.3 85 209 0.6 1.4 1029.4
12:33 6.6 4.3 85 217 0.6 1.7 1029.4
12:42 6.5 4.2 85 270 1.1 2.5 1029.4
12:53 6.6 4.3 85 312 1.1 3.6 1029.3
13:03 6.7 4 83 303 1.7 4.2 1029.1
13:13 6.8 3.9 82 252 0.8 1.9 1029
13:23 6.8 3.9 82 320 1.1 3.3 1028.9
13:33 6.9 4 82 295 0.6 1.7 1028.8
13:43 7 4.1 82 248 0.8 1.9 1028.6
13:53 7.1 4.1 81 251 0.6 2.2 1028.5
14:04 7.1 3.9 80 318 0.6 2.8 1028.4
14:13 7.1 3.9 80 296 0.6 1.4 1028.4
14:23 7.2 3.8 79 297 1.1 2.8 1028.2
14:33 7.2 4 80 270 0.8 2.8 1028.2
14:44 7.1 3.7 79 288 1.1 3.9 1028.1
14:54 7.1 3.7 79 319 1.7 4.2 1028.1
15:03 7 3.8 80 309 1.1 2.5 1027.9
15:14 7.1 3.5 78 309 1.4 4.7 1027.8
15:24 7.2 3.4 77 316 1.1 3.1 1027.8
15:34 7.2 3.6 78 244 0.6 2.2 1027.8
15:44 7.3 3.5 77 285 0.8 2.5 1027.8

DAY STATISTIC

2023-02-01
TEMPERATURE
AVERAGE
5.3
HIGH
7.3
15:44
LOW
4.0
07:21
PRESSURE
AVERAGE
1028.5
HIGH
1029.5
12:02
LOW
1027.8
04:50
DEWPOINT
AVERAGE
2.9
HIGH
4.6
11:02
LOW
2.0
06:41
HUMIDITY
AVERAGE
85
HIGH
89
09:51
LOW
77
15:24
WIND SPEED
AVERAGE
0.7
HIGH
1.7
13:03
WIND GUST
AVERAGE
1.7
HIGH
4.7
15:14
WIND DIRECTION
PREVAILING
W
51.1%
N
0.0
NE
0.0
E
0.0
SE
0.0
S
2.1
SW
33.0
W
51.1
NW
13.8
TEMPERATURE (°C)
LOW
4.0
HIGH
7.3
AVERAGE
5.3
PRESSURE (hpa)
LOW
1027.8
HIGH
1029.5
AVERAGE
1028.5
DEVICE